Al-Bouqe, Yemen

9:22 PM AST on July 23, 2014 (GMT +0300)
Nejran (OENG) Elev 3976 ft | 17.61 °N, 44.42 °E | Change Station

Current weather conditions updated 22 minutes ago

Scattered Clouds
Scattered Clouds
88 °F
Feels Like 88 °F
N
14
Wind Variable Wind from West

Tomorrow is forecast to be Cooler than today.

Today
High -- | Low -- °F
--% Chance of Precip.
Yesterday
High -- | Low -- °F
Precip. -- in
5:38 AM 6:37 PM
Waning Crescent, 9% visible
Pressure 29.89 in
Visibility 3.7 miles
Clouds Scattered Clouds 3000 ft
Scattered Clouds 9000 ft
Dew Point 48 °F
Humidity 25%
Rainfall 0.00 in
Snow Depth Not available.
UV 0 out of 12
Pollen Not available.
Air Quality Not available.
Flu Activity Not available.
METAR OENG 231800Z 26012KT 6000 SCT030 SCT090 31/09 Q1012 NOSIG

More Conditions Fewer Conditions

Pressure 29.89 in
Visibility 3.7 miles
Clouds Scattered Clouds 3000 ft
Scattered Clouds 9000 ft
Dew Point 48 °F
Humidity 25%
Rainfall 0.00 in
Snow Depth Not available.
UV 0 out of 12
Pollen Not available.
Air Quality Not available.
Flu Activity Not available.
METAR OENG 231800Z 26012KT 6000 SCT030 SCT090 31/09 Q1012 NOSIG

More Conditions Fewer Conditions

10-Day Weather Forecast

Almanac

Astronomy

Jul. 23, 2014 Rise Set
Actual Time 5:38 AM AST 6:37 PM AST
Civil Twilight 5:14 AM AST 7:01 PM AST
Nautical Twilight 4:47 AM AST 7:28 PM AST
Astronomical Twilight 4:18 AM AST 7:57 PM AST
Moon 2:36 AM AST 3:50 PM AST
Length of Visible Light 13h 46m
Length of Day
12h 59m
Tomorrow will be 0m 36s shorter.
Waning Crescent, 9% of the Moon is Illuminated
Today
Waning Crescent
Jul 26
New
Aug 3
First Quarter
Aug 10
Full
Aug 17
Last Quarter

Today's Extremes

Country Highs Country Lows

Community

WunderPhotos

Upload Photos

1,736,700 photos uploaded!

Nearby

Snow Depth

Not available.

Earthquake Activity

City Distance Mag. Time & Date
No recent earthquake activity has been reported nearby.
Minimum magnitude displayed is 2.5.

Coastal Water Temperatures

Place Temperature
No Stations Reporting

Nearby Weather Stations

There are no personal weather stations in this area.